sensor_id;sensor_type;location;lat;lon;timestamp;P1;durP1;ratioP1;P2;durP2;ratioP2
32918;SDS011;19280;42.646;21.150;2022-07-29T00:01:02;9.40;;;4.45;;
32918;SDS011;19280;42.646;21.150;2022-07-29T00:03:29;13.95;;;5.10;;
32918;SDS011;19280;42.646;21.150;2022-07-29T00:05:56;9.43;;;4.97;;
32918;SDS011;19280;42.646;21.150;2022-07-29T00:08:23;11.38;;;4.50;;
32918;SDS011;19280;42.646;21.150;2022-07-29T00:10:49;13.75;;;5.35;;
32918;SDS011;19280;42.646;21.150;2022-07-29T00:13:16;7.22;;;5.32;;
32918;SDS011;19280;42.646;21.150;2022-07-29T00:15:43;8.73;;;5.15;;
32918;SDS011;19280;42.646;21.150;2022-07-29T00:18:10;8.55;;;5.05;;
32918;SDS011;19280;42.646;21.150;2022-07-29T00:20:36;7.47;;;5.05;;
32918;SDS011;19280;42.646;21.150;2022-07-29T00:23:03;9.25;;;5.32;;
32918;SDS011;19280;42.646;21.150;2022-07-29T00:25:30;9.05;;;5.40;;
32918;SDS011;19280;42.646;21.150;2022-07-29T00:27:57;11.88;;;5.18;;
32918;SDS011;19280;42.646;21.150;2022-07-29T00:30:24;6.80;;;4.65;;
32918;SDS011;19280;42.646;21.150;2022-07-29T00:32:51;7.85;;;5.22;;
32918;SDS011;19280;42.646;21.150;2022-07-29T00:35:18;10.27;;;5.28;;
32918;SDS011;19280;42.646;21.150;2022-07-29T00:38:03;8.65;;;5.28;;
32918;SDS011;19280;42.646;21.150;2022-07-29T00:40:30;7.60;;;5.30;;
32918;SDS011;19280;42.646;21.150;2022-07-29T00:42:57;9.18;;;4.90;;
32918;SDS011;19280;42.646;21.150;2022-07-29T00:45:24;11.60;;;4.80;;
32918;SDS011;19280;42.646;21.150;2022-07-29T00:47:51;6.20;;;4.80;;
32918;SDS011;19280;42.646;21.150;2022-07-29T00:50:18;13.85;;;5.25;;
32918;SDS011;19280;42.646;21.150;2022-07-29T00:52:47;9.73;;;5.63;;
32918;SDS011;19280;42.646;21.150;2022-07-29T00:55:15;9.48;;;4.65;;
32918;SDS011;19280;42.646;21.150;2022-07-29T00:57:43;7.18;;;4.70;;
32918;SDS011;19280;42.646;21.150;2022-07-29T01:00:11;8.18;;;5.00;;
32918;SDS011;19280;42.646;21.150;2022-07-29T01:02:38;11.00;;;5.30;;
32918;SDS011;19280;42.646;21.150;2022-07-29T01:05:05;9.07;;;5.30;;
32918;SDS011;19280;42.646;21.150;2022-07-29T01:07:33;7.20;;;5.10;;
32918;SDS011;19280;42.646;21.150;2022-07-29T01:10:02;9.80;;;5.18;;
32918;SDS011;19280;42.646;21.150;2022-07-29T01:12:30;9.27;;;5.15;;
32918;SDS011;19280;42.646;21.150;2022-07-29T01:15:01;10.67;;;6.43;;
32918;SDS011;19280;42.646;21.150;2022-07-29T01:20:26;9.68;;;5.53;;
32918;SDS011;19280;42.646;21.150;2022-07-29T01:30:26;10.88;;;6.03;;
32918;SDS011;19280;42.646;21.150;2022-07-29T01:32:59;12.88;;;5.43;;
32918;SDS011;19280;42.646;21.150;2022-07-29T01:35:28;8.95;;;5.70;;
32918;SDS011;19280;42.646;21.150;2022-07-29T01:38:05;6.63;;;5.70;;
32918;SDS011;19280;42.646;21.150;2022-07-29T01:40:40;8.75;;;5.68;;
32918;SDS011;19280;42.646;21.150;2022-07-29T01:43:13;7.45;;;5.55;;
32918;SDS011;19280;42.646;21.150;2022-07-29T01:45:41;9.10;;;5.32;;
32918;SDS011;19280;42.646;21.150;2022-07-29T01:48:11;12.23;;;5.78;;
32918;SDS011;19280;42.646;21.150;2022-07-29T01:50:46;10.25;;;6.10;;
32918;SDS011;19280;42.646;21.150;2022-07-29T01:53:14;8.43;;;5.72;;
32918;SDS011;19280;42.646;21.150;2022-07-29T01:55:42;11.80;;;5.72;;
32918;SDS011;19280;42.646;21.150;2022-07-29T01:58:10;8.30;;;5.72;;
32918;SDS011;19280;42.646;21.150;2022-07-29T02:00:39;8.98;;;5.47;;
32918;SDS011;19280;42.646;21.150;2022-07-29T02:03:11;8.25;;;5.90;;
32918;SDS011;19280;42.646;21.150;2022-07-29T02:05:39;12.38;;;5.90;;
32918;SDS011;19280;42.646;21.150;2022-07-29T02:08:07;10.02;;;6.10;;
32918;SDS011;19280;42.646;21.150;2022-07-29T02:10:34;8.23;;;6.10;;
32918;SDS011;19280;42.646;21.150;2022-07-29T02:13:02;10.30;;;6.53;;
32918;SDS011;19280;42.646;21.150;2022-07-29T02:15:30;8.95;;;5.93;;
32918;SDS011;19280;42.646;21.150;2022-07-29T02:18:00;10.07;;;6.22;;
32918;SDS011;19280;42.646;21.150;2022-07-29T02:20:27;7.95;;;6.70;;
32918;SDS011;19280;42.646;21.150;2022-07-29T02:22:55;13.80;;;6.43;;
32918;SDS011;19280;42.646;21.150;2022-07-29T02:25:23;9.02;;;6.30;;
32918;SDS011;19280;42.646;21.150;2022-07-29T02:27:51;11.38;;;7.70;;
32918;SDS011;19280;42.646;21.150;2022-07-29T02:30:19;8.32;;;5.85;;
32918;SDS011;19280;42.646;21.150;2022-07-29T02:32:49;9.80;;;5.90;;
32918;SDS011;19280;42.646;21.150;2022-07-29T02:35:16;12.45;;;5.63;;
32918;SDS011;19280;42.646;21.150;2022-07-29T02:37:43;7.35;;;5.50;;
32918;SDS011;19280;42.646;21.150;2022-07-29T02:40:33;8.60;;;5.78;;
32918;SDS011;19280;42.646;21.150;2022-07-29T02:43:00;9.70;;;5.78;;
32918;SDS011;19280;42.646;21.150;2022-07-29T02:45:28;9.70;;;5.57;;
32918;SDS011;19280;42.646;21.150;2022-07-29T02:47:55;7.25;;;5.82;;
32918;SDS011;19280;42.646;21.150;2022-07-29T02:50:32;7.57;;;5.90;;
32918;SDS011;19280;42.646;21.150;2022-07-29T02:53:01;6.97;;;5.47;;
32918;SDS011;19280;42.646;21.150;2022-07-29T02:55:30;9.32;;;5.82;;
32918;SDS011;19280;42.646;21.150;2022-07-29T03:00:48;11.75;;;7.05;;
32918;SDS011;19280;42.646;21.150;2022-07-29T03:03:17;10.27;;;7.03;;
32918;SDS011;19280;42.646;21.150;2022-07-29T03:05:44;11.70;;;6.93;;
32918;SDS011;19280;42.646;21.150;2022-07-29T03:08:12;9.48;;;6.88;;
32918;SDS011;19280;42.646;21.150;2022-07-29T03:10:39;11.05;;;7.65;;
32918;SDS011;19280;42.646;21.150;2022-07-29T03:13:09;14.40;;;7.53;;
32918;SDS011;19280;42.646;21.150;2022-07-29T03:15:37;15.38;;;8.52;;
32918;SDS011;19280;42.646;21.150;2022-07-29T03:18:05;11.38;;;8.23;;
32918;SDS011;19280;42.646;21.150;2022-07-29T03:20:32;10.13;;;7.60;;
32918;SDS011;19280;42.646;21.150;2022-07-29T03:22:59;13.23;;;7.78;;
32918;SDS011;19280;42.646;21.150;2022-07-29T03:28:11;13.65;;;7.78;;
32918;SDS011;19280;42.646;21.150;2022-07-29T03:33:23;10.65;;;7.50;;
32918;SDS011;19280;42.646;21.150;2022-07-29T03:35:49;11.05;;;7.47;;
32918;SDS011;19280;42.646;21.150;2022-07-29T03:38:17;13.95;;;7.68;;
32918;SDS011;19280;42.646;21.150;2022-07-29T03:40:46;13.52;;;7.75;;
32918;SDS011;19280;42.646;21.150;2022-07-29T03:43:15;11.55;;;7.20;;
32918;SDS011;19280;42.646;21.150;2022-07-29T03:45:44;11.93;;;7.28;;
32918;SDS011;19280;42.646;21.150;2022-07-29T03:48:12;11.55;;;6.95;;
32918;SDS011;19280;42.646;21.150;2022-07-29T03:50:40;11.00;;;7.80;;
32918;SDS011;19280;42.646;21.150;2022-07-29T03:53:07;12.32;;;8.27;;
32918;SDS011;19280;42.646;21.150;2022-07-29T03:55:40;14.35;;;7.13;;
32918;SDS011;19280;42.646;21.150;2022-07-29T03:58:08;11.43;;;6.93;;
32918;SDS011;19280;42.646;21.150;2022-07-29T04:00:35;10.27;;;7.53;;
32918;SDS011;19280;42.646;21.150;2022-07-29T04:03:03;10.57;;;7.20;;
32918;SDS011;19280;42.646;21.150;2022-07-29T04:05:30;11.30;;;7.32;;
32918;SDS011;19280;42.646;21.150;2022-07-29T04:07:56;10.35;;;7.43;;
32918;SDS011;19280;42.646;21.150;2022-07-29T04:10:23;11.80;;;7.00;;
32918;SDS011;19280;42.646;21.150;2022-07-29T04:12:50;13.40;;;8.00;;
32918;SDS011;19280;42.646;21.150;2022-07-29T04:15:18;12.88;;;7.78;;
32918;SDS011;19280;42.646;21.150;2022-07-29T04:17:45;10.73;;;6.82;;
32918;SDS011;19280;42.646;21.150;2022-07-29T04:20:11;12.10;;;7.72;;
32918;SDS011;19280;42.646;21.150;2022-07-29T04:22:42;12.85;;;8.23;;
32918;SDS011;19280;42.646;21.150;2022-07-29T04:25:09;15.55;;;6.85;;
32918;SDS011;19280;42.646;21.150;2022-07-29T04:27:36;13.35;;;8.50;;
32918;SDS011;19280;42.646;21.150;2022-07-29T04:30:22;11.00;;;7.63;;
32918;SDS011;19280;42.646;21.150;2022-07-29T04:32:49;21.05;;;7.68;;
32918;SDS011;19280;42.646;21.150;2022-07-29T04:35:16;9.10;;;6.35;;
32918;SDS011;19280;42.646;21.150;2022-07-29T04:37:43;15.82;;;6.25;;
32918;SDS011;19280;42.646;21.150;2022-07-29T04:40:09;9.02;;;5.30;;
32918;SDS011;19280;42.646;21.150;2022-07-29T04:42:37;9.88;;;5.30;;
32918;SDS011;19280;42.646;21.150;2022-07-29T04:45:04;13.35;;;4.97;;
32918;SDS011;19280;42.646;21.150;2022-07-29T04:47:32;11.95;;;6.05;;
32918;SDS011;19280;42.646;21.150;2022-07-29T04:49:58;7.85;;;4.55;;
32918;SDS011;19280;42.646;21.150;2022-07-29T04:52:25;12.35;;;4.68;;
32918;SDS011;19280;42.646;21.150;2022-07-29T04:54:52;5.75;;;4.28;;
32918;SDS011;19280;42.646;21.150;2022-07-29T04:57:19;6.45;;;4.28;;
32918;SDS011;19280;42.646;21.150;2022-07-29T04:59:45;8.27;;;5.07;;
32918;SDS011;19280;42.646;21.150;2022-07-29T05:02:13;11.20;;;4.88;;
32918;SDS011;19280;42.646;21.150;2022-07-29T05:04:40;7.50;;;4.68;;
32918;SDS011;19280;42.646;21.150;2022-07-29T05:07:06;9.10;;;4.30;;
32918;SDS011;19280;42.646;21.150;2022-07-29T05:09:33;10.45;;;5.70;;
32918;SDS011;19280;42.646;21.150;2022-07-29T05:12:00;13.90;;;7.00;;
32918;SDS011;19280;42.646;21.150;2022-07-29T05:14:27;6.97;;;4.53;;
32918;SDS011;19280;42.646;21.150;2022-07-29T05:16:54;10.75;;;4.43;;
32918;SDS011;19280;42.646;21.150;2022-07-29T05:19:22;12.35;;;5.00;;
32918;SDS011;19280;42.646;21.150;2022-07-29T05:21:49;8.07;;;4.50;;
32918;SDS011;19280;42.646;21.150;2022-07-29T05:24:16;9.30;;;5.05;;
32918;SDS011;19280;42.646;21.150;2022-07-29T05:26:43;8.45;;;4.60;;
32918;SDS011;19280;42.646;21.150;2022-07-29T05:29:10;8.60;;;5.40;;
32918;SDS011;19280;42.646;21.150;2022-07-29T05:31:37;7.55;;;4.55;;
32918;SDS011;19280;42.646;21.150;2022-07-29T05:34:03;13.63;;;4.72;;
32918;SDS011;19280;42.646;21.150;2022-07-29T05:36:30;5.88;;;3.83;;
32918;SDS011;19280;42.646;21.150;2022-07-29T05:38:57;9.60;;;3.83;;
32918;SDS011;19280;42.646;21.150;2022-07-29T05:41:24;6.65;;;4.07;;
32918;SDS011;19280;42.646;21.150;2022-07-29T05:43:51;5.78;;;3.90;;
32918;SDS011;19280;42.646;21.150;2022-07-29T05:46:18;9.23;;;3.95;;
32918;SDS011;19280;42.646;21.150;2022-07-29T05:48:44;6.30;;;3.60;;
32918;SDS011;19280;42.646;21.150;2022-07-29T05:51:11;8.20;;;4.30;;
32918;SDS011;19280;42.646;21.150;2022-07-29T05:53:38;7.93;;;4.00;;
32918;SDS011;19280;42.646;21.150;2022-07-29T05:56:05;9.57;;;4.38;;
32918;SDS011;19280;42.646;21.150;2022-07-29T05:58:32;8.27;;;4.15;;
32918;SDS011;19280;42.646;21.150;2022-07-29T06:00:59;7.53;;;4.38;;
32918;SDS011;19280;42.646;21.150;2022-07-29T06:03:26;12.07;;;4.60;;
32918;SDS011;19280;42.646;21.150;2022-07-29T06:05:52;9.55;;;4.22;;
32918;SDS011;19280;42.646;21.150;2022-07-29T06:08:19;13.88;;;7.00;;
32918;SDS011;19280;42.646;21.150;2022-07-29T06:10:46;10.60;;;4.40;;
32918;SDS011;19280;42.646;21.150;2022-07-29T06:13:12;8.05;;;4.13;;
32918;SDS011;19280;42.646;21.150;2022-07-29T06:15:41;7.15;;;4.32;;
32918;SDS011;19280;42.646;21.150;2022-07-29T06:18:08;6.47;;;4.00;;
32918;SDS011;19280;42.646;21.150;2022-07-29T06:20:36;8.60;;;4.13;;
32918;SDS011;19280;42.646;21.150;2022-07-29T06:23:03;10.48;;;4.18;;
32918;SDS011;19280;42.646;21.150;2022-07-29T06:25:30;11.00;;;4.38;;
32918;SDS011;19280;42.646;21.150;2022-07-29T06:28:00;10.60;;;4.50;;
32918;SDS011;19280;42.646;21.150;2022-07-29T06:30:27;9.15;;;4.45;;
32918;SDS011;19280;42.646;21.150;2022-07-29T06:32:54;10.00;;;4.72;;
32918;SDS011;19280;42.646;21.150;2022-07-29T06:35:21;6.95;;;4.20;;
32918;SDS011;19280;42.646;21.150;2022-07-29T06:37:47;13.85;;;4.30;;
32918;SDS011;19280;42.646;21.150;2022-07-29T06:40:14;6.15;;;4.05;;
32918;SDS011;19280;42.646;21.150;2022-07-29T06:42:59;8.35;;;4.57;;
32918;SDS011;19280;42.646;21.150;2022-07-29T06:45:26;9.90;;;4.40;;
32918;SDS011;19280;42.646;21.150;2022-07-29T06:47:53;8.52;;;4.28;;
32918;SDS011;19280;42.646;21.150;2022-07-29T06:50:20;10.32;;;4.57;;
32918;SDS011;19280;42.646;21.150;2022-07-29T06:52:47;10.32;;;3.90;;
32918;SDS011;19280;42.646;21.150;2022-07-29T06:55:14;5.85;;;4.32;;
32918;SDS011;19280;42.646;21.150;2022-07-29T06:57:40;12.80;;;4.28;;
32918;SDS011;19280;42.646;21.150;2022-07-29T07:00:07;12.02;;;5.00;;
32918;SDS011;19280;42.646;21.150;2022-07-29T07:02:34;8.25;;;3.95;;
32918;SDS011;19280;42.646;21.150;2022-07-29T07:05:01;10.43;;;4.50;;
32918;SDS011;19280;42.646;21.150;2022-07-29T07:07:28;8.43;;;4.43;;
32918;SDS011;19280;42.646;21.150;2022-07-29T07:09:54;12.23;;;5.35;;
32918;SDS011;19280;42.646;21.150;2022-07-29T07:12:21;10.07;;;4.43;;
32918;SDS011;19280;42.646;21.150;2022-07-29T07:14:48;8.55;;;4.75;;
32918;SDS011;19280;42.646;21.150;2022-07-29T07:17:14;6.43;;;4.43;;
32918;SDS011;19280;42.646;21.150;2022-07-29T07:19:41;8.68;;;4.38;;
32918;SDS011;19280;42.646;21.150;2022-07-29T07:22:08;8.48;;;4.65;;
32918;SDS011;19280;42.646;21.150;2022-07-29T07:24:36;8.00;;;4.85;;
32918;SDS011;19280;42.646;21.150;2022-07-29T07:27:03;14.98;;;4.68;;
32918;SDS011;19280;42.646;21.150;2022-07-29T07:29:29;10.65;;;4.63;;
32918;SDS011;19280;42.646;21.150;2022-07-29T07:31:57;11.50;;;4.10;;
32918;SDS011;19280;42.646;21.150;2022-07-29T07:34:24;7.28;;;4.05;;
32918;SDS011;19280;42.646;21.150;2022-07-29T07:36:52;8.75;;;4.20;;
32918;SDS011;19280;42.646;21.150;2022-07-29T07:39:19;14.93;;;4.88;;
32918;SDS011;19280;42.646;21.150;2022-07-29T07:41:45;7.65;;;4.40;;
32918;SDS011;19280;42.646;21.150;2022-07-29T07:44:13;12.27;;;4.85;;
32918;SDS011;19280;42.646;21.150;2022-07-29T07:46:40;15.93;;;4.10;;
32918;SDS011;19280;42.646;21.150;2022-07-29T07:49:06;8.55;;;4.72;;
32918;SDS011;19280;42.646;21.150;2022-07-29T07:51:33;11.13;;;3.95;;
32918;SDS011;19280;42.646;21.150;2022-07-29T07:54:00;9.38;;;4.72;;
32918;SDS011;19280;42.646;21.150;2022-07-29T07:56:27;7.10;;;4.45;;
32918;SDS011;19280;42.646;21.150;2022-07-29T07:58:54;7.30;;;4.10;;
32918;SDS011;19280;42.646;21.150;2022-07-29T08:01:20;7.93;;;4.60;;
32918;SDS011;19280;42.646;21.150;2022-07-29T08:03:49;7.35;;;5.05;;
32918;SDS011;19280;42.646;21.150;2022-07-29T08:06:16;12.05;;;4.50;;
32918;SDS011;19280;42.646;21.150;2022-07-29T08:08:43;16.45;;;5.22;;
32918;SDS011;19280;42.646;21.150;2022-07-29T08:11:10;10.93;;;5.20;;
32918;SDS011;19280;42.646;21.150;2022-07-29T08:13:37;7.60;;;4.32;;
32918;SDS011;19280;42.646;21.150;2022-07-29T08:16:04;6.28;;;4.90;;
32918;SDS011;19280;42.646;21.150;2022-07-29T08:18:38;13.98;;;4.50;;
32918;SDS011;19280;42.646;21.150;2022-07-29T08:21:05;14.75;;;4.70;;
32918;SDS011;19280;42.646;21.150;2022-07-29T08:23:32;9.73;;;4.70;;
32918;SDS011;19280;42.646;21.150;2022-07-29T08:26:12;12.75;;;5.45;;
32918;SDS011;19280;42.646;21.150;2022-07-29T08:28:40;9.48;;;4.90;;
32918;SDS011;19280;42.646;21.150;2022-07-29T08:31:11;7.78;;;4.93;;
32918;SDS011;19280;42.646;21.150;2022-07-29T08:33:38;14.32;;;5.40;;
32918;SDS011;19280;42.646;21.150;2022-07-29T08:36:05;8.90;;;4.43;;
32918;SDS011;19280;42.646;21.150;2022-07-29T08:38:32;9.63;;;5.22;;
32918;SDS011;19280;42.646;21.150;2022-07-29T08:41:00;33.38;;;6.47;;
32918;SDS011;19280;42.646;21.150;2022-07-29T08:43:27;13.85;;;6.05;;
32918;SDS011;19280;42.646;21.150;2022-07-29T08:45:54;9.57;;;5.40;;
32918;SDS011;19280;42.646;21.150;2022-07-29T08:48:23;10.63;;;5.38;;
32918;SDS011;19280;42.646;21.150;2022-07-29T08:50:52;11.30;;;4.80;;
32918;SDS011;19280;42.646;21.150;2022-07-29T08:53:20;9.45;;;4.95;;
32918;SDS011;19280;42.646;21.150;2022-07-29T08:55:48;8.90;;;5.07;;
32918;SDS011;19280;42.646;21.150;2022-07-29T08:58:15;9.73;;;5.28;;
32918;SDS011;19280;42.646;21.150;2022-07-29T09:00:45;12.18;;;5.70;;
32918;SDS011;19280;42.646;21.150;2022-07-29T09:03:12;12.60;;;5.57;;
32918;SDS011;19280;42.646;21.150;2022-07-29T09:05:41;12.10;;;5.45;;
32918;SDS011;19280;42.646;21.150;2022-07-29T09:08:08;12.05;;;4.82;;
32918;SDS011;19280;42.646;21.150;2022-07-29T09:10:36;8.65;;;4.65;;
32918;SDS011;19280;42.646;21.150;2022-07-29T09:13:03;9.00;;;5.10;;
32918;SDS011;19280;42.646;21.150;2022-07-29T09:15:30;10.30;;;5.00;;
32918;SDS011;19280;42.646;21.150;2022-07-29T09:17:57;9.85;;;4.93;;
32918;SDS011;19280;42.646;21.150;2022-07-29T09:20:25;9.70;;;5.40;;
32918;SDS011;19280;42.646;21.150;2022-07-29T09:23:13;10.63;;;5.63;;
32918;SDS011;19280;42.646;21.150;2022-07-29T09:25:40;12.00;;;5.47;;
32918;SDS011;19280;42.646;21.150;2022-07-29T09:28:07;8.70;;;5.25;;
32918;SDS011;19280;42.646;21.150;2022-07-29T09:30:35;12.18;;;5.45;;
32918;SDS011;19280;42.646;21.150;2022-07-29T09:33:02;10.75;;;5.07;;
32918;SDS011;19280;42.646;21.150;2022-07-29T09:35:30;12.27;;;4.93;;
32918;SDS011;19280;42.646;21.150;2022-07-29T09:37:57;11.93;;;5.82;;
32918;SDS011;19280;42.646;21.150;2022-07-29T09:40:27;7.80;;;4.90;;
32918;SDS011;19280;42.646;21.150;2022-07-29T09:42:55;11.73;;;5.15;;
32918;SDS011;19280;42.646;21.150;2022-07-29T09:45:33;6.32;;;5.00;;
32918;SDS011;19280;42.646;21.150;2022-07-29T09:48:12;10.05;;;5.80;;
32918;SDS011;19280;42.646;21.150;2022-07-29T09:50:40;13.80;;;5.25;;
32918;SDS011;19280;42.646;21.150;2022-07-29T09:53:07;11.93;;;5.15;;
32918;SDS011;19280;42.646;21.150;2022-07-29T09:55:46;13.15;;;5.63;;
32918;SDS011;19280;42.646;21.150;2022-07-29T09:58:14;9.02;;;5.63;;
32918;SDS011;19280;42.646;21.150;2022-07-29T10:00:42;14.85;;;5.05;;
32918;SDS011;19280;42.646;21.150;2022-07-29T10:03:09;8.60;;;4.75;;
32918;SDS011;19280;42.646;21.150;2022-07-29T10:05:37;17.80;;;4.88;;
32918;SDS011;19280;42.646;21.150;2022-07-29T10:08:04;12.45;;;4.72;;
32918;SDS011;19280;42.646;21.150;2022-07-29T10:10:33;9.93;;;5.47;;
32918;SDS011;19280;42.646;21.150;2022-07-29T10:13:05;10.90;;;5.00;;
32918;SDS011;19280;42.646;21.150;2022-07-29T10:17:59;17.40;;;5.57;;
32918;SDS011;19280;42.646;21.150;2022-07-29T10:20:26;8.05;;;4.93;;
32918;SDS011;19280;42.646;21.150;2022-07-29T10:22:54;11.98;;;4.88;;
32918;SDS011;19280;42.646;21.150;2022-07-29T10:25:21;6.28;;;4.88;;
32918;SDS011;19280;42.646;21.150;2022-07-29T10:27:48;6.95;;;4.93;;
32918;SDS011;19280;42.646;21.150;2022-07-29T10:30:17;6.95;;;5.28;;
32918;SDS011;19280;42.646;21.150;2022-07-29T10:43:56;10.60;;;5.35;;
32918;SDS011;19280;42.646;21.150;2022-07-29T10:46:24;13.48;;;4.80;;
32918;SDS011;19280;42.646;21.150;2022-07-29T10:49:11;10.20;;;4.90;;
32918;SDS011;19280;42.646;21.150;2022-07-29T10:59:43;11.90;;;4.22;;
32918;SDS011;19280;42.646;21.150;2022-07-29T11:07:25;10.82;;;4.20;;
32918;SDS011;19280;42.646;21.150;2022-07-29T11:15:06;10.23;;;4.90;;
32918;SDS011;19280;42.646;21.150;2022-07-29T11:20:37;9.80;;;4.78;;
32918;SDS011;19280;42.646;21.150;2022-07-29T11:23:18;5.80;;;4.38;;
32918;SDS011;19280;42.646;21.150;2022-07-29T11:25:45;8.07;;;5.07;;
32918;SDS011;19280;42.646;21.150;2022-07-29T11:28:16;5.85;;;4.53;;
32918;SDS011;19280;42.646;21.150;2022-07-29T11:30:49;6.30;;;4.28;;
32918;SDS011;19280;42.646;21.150;2022-07-29T11:33:30;10.35;;;5.65;;
32918;SDS011;19280;42.646;21.150;2022-07-29T11:36:09;9.77;;;5.13;;
32918;SDS011;19280;42.646;21.150;2022-07-29T11:38:37;12.10;;;4.25;;
32918;SDS011;19280;42.646;21.150;2022-07-29T11:43:47;8.52;;;4.72;;
32918;SDS011;19280;42.646;21.150;2022-07-29T11:46:14;5.45;;;4.25;;
32918;SDS011;19280;42.646;21.150;2022-07-29T11:48:42;8.40;;;4.55;;
32918;SDS011;19280;42.646;21.150;2022-07-29T11:51:10;8.65;;;4.78;;
32918;SDS011;19280;42.646;21.150;2022-07-29T11:53:40;12.45;;;4.50;;
32918;SDS011;19280;42.646;21.150;2022-07-29T11:56:16;11.25;;;5.20;;
32918;SDS011;19280;42.646;21.150;2022-07-29T11:58:47;9.52;;;4.40;;
32918;SDS011;19280;42.646;21.150;2022-07-29T12:01:16;14.77;;;4.80;;
32918;SDS011;19280;42.646;21.150;2022-07-29T12:03:43;20.35;;;4.88;;
32918;SDS011;19280;42.646;21.150;2022-07-29T12:06:14;10.27;;;4.85;;
32918;SDS011;19280;42.646;21.150;2022-07-29T12:08:41;18.10;;;5.10;;
32918;SDS011;19280;42.646;21.150;2022-07-29T12:11:19;16.42;;;4.93;;
32918;SDS011;19280;42.646;21.150;2022-07-29T12:13:46;12.38;;;5.22;;
32918;SDS011;19280;42.646;21.150;2022-07-29T12:16:13;21.73;;;6.22;;
32918;SDS011;19280;42.646;21.150;2022-07-29T12:18:41;12.57;;;4.80;;
32918;SDS011;19280;42.646;21.150;2022-07-29T12:21:09;11.55;;;5.70;;
32918;SDS011;19280;42.646;21.150;2022-07-29T12:23:36;9.40;;;4.55;;
32918;SDS011;19280;42.646;21.150;2022-07-29T12:26:04;13.75;;;4.80;;
32918;SDS011;19280;42.646;21.150;2022-07-29T12:28:31;11.52;;;5.47;;
32918;SDS011;19280;42.646;21.150;2022-07-29T12:31:05;9.05;;;4.30;;
32918;SDS011;19280;42.646;21.150;2022-07-29T12:33:33;8.70;;;4.50;;
32918;SDS011;19280;42.646;21.150;2022-07-29T12:36:00;9.27;;;4.95;;
32918;SDS011;19280;42.646;21.150;2022-07-29T12:38:28;14.20;;;4.60;;
32918;SDS011;19280;42.646;21.150;2022-07-29T12:40:54;8.48;;;4.72;;
32918;SDS011;19280;42.646;21.150;2022-07-29T12:43:22;8.45;;;4.65;;
32918;SDS011;19280;42.646;21.150;2022-07-29T12:45:49;9.95;;;4.82;;
32918;SDS011;19280;42.646;21.150;2022-07-29T12:48:17;13.77;;;4.93;;
32918;SDS011;19280;42.646;21.150;2022-07-29T12:50:52;13.68;;;4.85;;
32918;SDS011;19280;42.646;21.150;2022-07-29T12:53:20;20.33;;;5.05;;
32918;SDS011;19280;42.646;21.150;2022-07-29T12:55:51;10.10;;;4.78;;
32918;SDS011;19280;42.646;21.150;2022-07-29T13:01:16;6.63;;;4.07;;
32918;SDS011;19280;42.646;21.150;2022-07-29T13:03:51;10.02;;;4.45;;
32918;SDS011;19280;42.646;21.150;2022-07-29T13:08:59;8.48;;;4.00;;
32918;SDS011;19280;42.646;21.150;2022-07-29T13:11:28;11.73;;;3.80;;
32918;SDS011;19280;42.646;21.150;2022-07-29T13:13:55;11.70;;;4.18;;
32918;SDS011;19280;42.646;21.150;2022-07-29T13:16:21;8.40;;;4.60;;
32918;SDS011;19280;42.646;21.150;2022-07-29T13:18:48;5.18;;;3.60;;
32918;SDS011;19280;42.646;21.150;2022-07-29T13:21:17;7.70;;;4.07;;
32918;SDS011;19280;42.646;21.150;2022-07-29T13:23:43;18.88;;;4.25;;
32918;SDS011;19280;42.646;21.150;2022-07-29T13:26:11;9.60;;;4.10;;
32918;SDS011;19280;42.646;21.150;2022-07-29T13:28:38;11.20;;;4.30;;
32918;SDS011;19280;42.646;21.150;2022-07-29T13:31:05;13.75;;;5.20;;
32918;SDS011;19280;42.646;21.150;2022-07-29T13:33:32;12.00;;;3.58;;
32918;SDS011;19280;42.646;21.150;2022-07-29T13:35:58;12.45;;;4.03;;
32918;SDS011;19280;42.646;21.150;2022-07-29T13:38:25;9.68;;;3.95;;
32918;SDS011;19280;42.646;21.150;2022-07-29T13:40:53;12.90;;;4.53;;
32918;SDS011;19280;42.646;21.150;2022-07-29T13:43:20;17.88;;;4.68;;
32918;SDS011;19280;42.646;21.150;2022-07-29T13:45:47;9.13;;;4.03;;
32918;SDS011;19280;42.646;21.150;2022-07-29T13:48:13;15.60;;;3.83;;
32918;SDS011;19280;42.646;21.150;2022-07-29T13:50:40;3.67;;;2.95;;
32918;SDS011;19280;42.646;21.150;2022-07-29T13:53:07;8.32;;;3.33;;
32918;SDS011;19280;42.646;21.150;2022-07-29T13:55:34;6.68;;;3.50;;
32918;SDS011;19280;42.646;21.150;2022-07-29T13:58:00;5.93;;;2.95;;
32918;SDS011;19280;42.646;21.150;2022-07-29T14:00:28;11.10;;;3.80;;
32918;SDS011;19280;42.646;21.150;2022-07-29T14:02:54;10.80;;;4.00;;
32918;SDS011;19280;42.646;21.150;2022-07-29T14:05:22;9.63;;;4.32;;
32918;SDS011;19280;42.646;21.150;2022-07-29T14:07:48;8.32;;;4.30;;
32918;SDS011;19280;42.646;21.150;2022-07-29T14:10:15;10.38;;;4.18;;
32918;SDS011;19280;42.646;21.150;2022-07-29T14:12:42;9.20;;;3.88;;
32918;SDS011;19280;42.646;21.150;2022-07-29T14:15:08;19.52;;;4.68;;
32918;SDS011;19280;42.646;21.150;2022-07-29T14:17:35;6.25;;;4.03;;
32918;SDS011;19280;42.646;21.150;2022-07-29T14:20:02;6.40;;;3.60;;
32918;SDS011;19280;42.646;21.150;2022-07-29T14:22:30;7.00;;;3.85;;
32918;SDS011;19280;42.646;21.150;2022-07-29T14:24:56;7.82;;;3.60;;
32918;SDS011;19280;42.646;21.150;2022-07-29T14:27:23;8.77;;;3.83;;
32918;SDS011;19280;42.646;21.150;2022-07-29T14:29:50;5.97;;;3.30;;
32918;SDS011;19280;42.646;21.150;2022-07-29T14:32:17;9.88;;;3.50;;
32918;SDS011;19280;42.646;21.150;2022-07-29T14:34:43;8.95;;;3.72;;
32918;SDS011;19280;42.646;21.150;2022-07-29T14:37:10;7.30;;;3.55;;
32918;SDS011;19280;42.646;21.150;2022-07-29T14:39:37;5.60;;;3.72;;
32918;SDS011;19280;42.646;21.150;2022-07-29T14:42:04;7.88;;;3.90;;
32918;SDS011;19280;42.646;21.150;2022-07-29T14:44:30;8.45;;;3.50;;
32918;SDS011;19280;42.646;21.150;2022-07-29T14:46:58;7.78;;;3.45;;
32918;SDS011;19280;42.646;21.150;2022-07-29T14:49:25;8.02;;;3.30;;
32918;SDS011;19280;42.646;21.150;2022-07-29T14:51:53;5.43;;;2.85;;
32918;SDS011;19280;42.646;21.150;2022-07-29T14:54:20;5.18;;;3.20;;
32918;SDS011;19280;42.646;21.150;2022-07-29T14:56:47;5.28;;;3.60;;
32918;SDS011;19280;42.646;21.150;2022-07-29T14:59:16;7.57;;;3.50;;
32918;SDS011;19280;42.646;21.150;2022-07-29T15:01:43;5.93;;;2.92;;
32918;SDS011;19280;42.646;21.150;2022-07-29T15:04:10;6.38;;;3.22;;
32918;SDS011;19280;42.646;21.150;2022-07-29T15:06:36;9.18;;;3.40;;
32918;SDS011;19280;42.646;21.150;2022-07-29T15:09:03;7.50;;;3.65;;
32918;SDS011;19280;42.646;21.150;2022-07-29T15:11:30;8.13;;;3.47;;
32918;SDS011;19280;42.646;21.150;2022-07-29T15:13:57;6.03;;;3.38;;
32918;SDS011;19280;42.646;21.150;2022-07-29T15:16:23;7.25;;;3.60;;
32918;SDS011;19280;42.646;21.150;2022-07-29T15:18:50;9.20;;;3.63;;
32918;SDS011;19280;42.646;21.150;2022-07-29T15:21:17;12.40;;;3.70;;
32918;SDS011;19280;42.646;21.150;2022-07-29T15:23:43;11.38;;;4.10;;
32918;SDS011;19280;42.646;21.150;2022-07-29T15:26:10;11.85;;;3.97;;
32918;SDS011;19280;42.646;21.150;2022-07-29T15:28:37;4.35;;;3.60;;
32918;SDS011;19280;42.646;21.150;2022-07-29T15:31:05;9.20;;;4.07;;
32918;SDS011;19280;42.646;21.150;2022-07-29T15:33:32;7.00;;;3.50;;
32918;SDS011;19280;42.646;21.150;2022-07-29T15:36:00;7.85;;;3.90;;